createdAt,value
2018-09-06T00:01:26.173Z,58.70
2018-09-06T00:03:54.408Z,58.90
2018-09-06T00:06:22.635Z,58.90
2018-09-06T00:08:50.882Z,58.90
2018-09-06T00:11:19.093Z,58.90
2018-09-06T00:13:47.332Z,59.10
2018-09-06T00:16:15.561Z,59.20
2018-09-06T00:18:43.808Z,59.20
2018-09-06T00:21:12.040Z,59.30
2018-09-06T00:23:40.313Z,59.40
2018-09-06T00:26:08.546Z,59.50
2018-09-06T00:28:36.777Z,59.60
2018-09-06T00:31:05.061Z,59.60
2018-09-06T00:33:33.282Z,59.60
2018-09-06T00:36:01.544Z,59.60
2018-09-06T00:38:29.793Z,59.60
2018-09-06T00:40:58.065Z,59.70
2018-09-06T00:43:26.293Z,59.70
2018-09-06T00:45:54.553Z,59.80
2018-09-06T00:48:22.796Z,59.90
2018-09-06T00:50:51.098Z,60.00
2018-09-06T00:53:19.325Z,60.10
2018-09-06T00:55:47.584Z,60.30
2018-09-06T00:58:15.802Z,60.40
2018-09-06T01:00:44.053Z,60.40
2018-09-06T01:03:12.277Z,60.60
2018-09-06T01:05:40.555Z,60.50
2018-09-06T01:08:08.805Z,60.50
2018-09-06T01:10:37.064Z,60.40
2018-09-06T01:13:05.312Z,60.60
2018-09-06T01:15:33.531Z,60.60
2018-09-06T01:18:02.097Z,60.60
2018-09-06T01:20:30.348Z,60.70
2018-09-06T01:22:58.617Z,60.70
2018-09-06T01:25:31.060Z,60.70
2018-09-06T01:27:59.307Z,60.80
2018-09-06T01:30:27.509Z,60.80
2018-09-06T01:32:55.788Z,61.00
2018-09-06T01:35:24.009Z,61.10
2018-09-06T01:37:52.279Z,61.20
2018-09-06T01:40:20.512Z,61.20
2018-09-06T01:42:48.768Z,61.30
2018-09-06T01:45:16.968Z,61.30
2018-09-06T01:47:45.244Z,61.30
2018-09-06T01:50:13.491Z,61.30
2018-09-06T01:52:41.764Z,61.50
2018-09-06T01:55:10.149Z,61.50
2018-09-06T01:57:38.385Z,61.60
2018-09-06T02:00:06.625Z,61.70
2018-09-06T02:02:34.880Z,61.80
2018-09-06T02:05:03.122Z,61.90
2018-09-06T02:07:31.376Z,61.90
2018-09-06T02:09:59.675Z,61.90
2018-09-06T02:12:27.944Z,61.90
2018-09-06T02:14:56.164Z,62.00
2018-09-06T02:17:24.377Z,62.00
2018-09-06T02:19:52.625Z,62.00
2018-09-06T02:22:20.841Z,62.10
2018-09-06T02:24:49.081Z,62.20
2018-09-06T02:27:17.295Z,62.30
2018-09-06T02:29:45.570Z,62.30
2018-09-06T02:32:13.802Z,62.50
2018-09-06T02:34:42.044Z,62.50
2018-09-06T02:37:10.268Z,62.60
2018-09-06T02:39:38.520Z,62.50
2018-09-06T02:42:06.762Z,62.70
2018-09-06T02:44:35.021Z,62.60
2018-09-06T02:47:03.268Z,62.80
2018-09-06T02:49:36.961Z,62.70
2018-09-06T02:52:05.212Z,62.80
2018-09-06T02:54:33.501Z,62.90
2018-09-06T02:57:01.732Z,63.10
2018-09-06T02:59:29.978Z,63.00
2018-09-06T03:01:58.218Z,63.00
2018-09-06T03:04:26.478Z,63.00
2018-09-06T03:06:54.764Z,63.10
2018-09-06T03:09:24.356Z,63.80
2018-09-06T03:11:55.996Z,63.30
2018-09-06T03:14:24.293Z,63.40
2018-09-06T03:16:52.500Z,63.50
2018-09-06T03:19:20.795Z,63.60
2018-09-06T03:21:48.997Z,63.80
2018-09-06T03:24:17.250Z,63.90
2018-09-06T03:26:45.483Z,63.90
2018-09-06T03:29:13.740Z,63.70
2018-09-06T03:31:42.000Z,63.80
2018-09-06T03:34:10.221Z,63.80
2018-09-06T03:36:38.470Z,63.80
2018-09-06T03:39:07.900Z,63.70
2018-09-06T03:41:36.168Z,63.80
2018-09-06T03:44:04.660Z,64.00
2018-09-06T03:46:32.904Z,64.30
2018-09-06T03:49:01.271Z,64.30
2018-09-06T03:51:29.545Z,64.30
2018-09-06T03:53:57.773Z,64.30
2018-09-06T03:56:26.012Z,64.20
2018-09-06T03:58:54.237Z,64.40
2018-09-06T04:01:22.481Z,64.50
2018-09-06T04:03:50.700Z,64.70
2018-09-06T04:06:19.002Z,64.80
2018-09-06T04:08:47.208Z,64.80
2018-09-06T04:11:15.442Z,64.70
2018-09-06T04:13:43.690Z,64.70
2018-09-06T04:16:11.989Z,64.70
2018-09-06T04:18:40.789Z,64.70
2018-09-06T04:21:09.126Z,64.70
2018-09-06T04:23:37.408Z,64.90
2018-09-06T04:26:05.865Z,64.90
2018-09-06T04:28:34.108Z,64.80
2018-09-06T04:31:02.401Z,64.80
2018-09-06T04:33:30.660Z,65.10
2018-09-06T04:35:58.909Z,65.20
2018-09-06T04:38:27.160Z,65.20
2018-09-06T04:40:55.428Z,65.30
2018-09-06T04:43:23.691Z,65.30
2018-09-06T04:45:51.974Z,65.30
2018-09-06T04:48:20.449Z,65.20
2018-09-06T04:50:48.704Z,65.20
2018-09-06T04:53:17.012Z,65.30
2018-09-06T04:55:46.009Z,65.40
2018-09-06T04:58:14.277Z,65.30
2018-09-06T05:00:42.501Z,65.30
2018-09-06T05:03:10.737Z,65.30
2018-09-06T05:05:39.041Z,65.30
2018-09-06T05:08:07.265Z,65.40
2018-09-06T05:10:35.565Z,65.50
2018-09-06T05:13:03.812Z,65.50
2018-09-06T05:15:32.108Z,65.60
2018-09-06T05:18:00.348Z,65.60
2018-09-06T05:20:28.612Z,65.60
2018-09-06T05:22:56.833Z,65.70
2018-09-06T05:25:25.069Z,65.70
2018-09-06T05:27:53.414Z,65.70
2018-09-06T05:30:21.660Z,65.80
2018-09-06T05:32:49.880Z,65.90
2018-09-06T05:35:18.278Z,65.90
2018-09-06T05:37:46.366Z,65.80
2018-09-06T05:40:14.616Z,65.80
2018-09-06T05:42:42.828Z,66.10
2018-09-06T05:45:11.078Z,65.90
2018-09-06T05:47:39.304Z,65.70
2018-09-06T05:50:08.040Z,65.80
2018-09-06T05:52:36.258Z,65.70
2018-09-06T05:55:04.476Z,65.70
2018-09-06T05:57:32.730Z,65.70
2018-09-06T06:00:00.969Z,65.60
2018-09-06T06:02:29.227Z,65.60
2018-09-06T06:04:57.446Z,65.70
2018-09-06T06:07:36.368Z,65.80
2018-09-06T06:10:04.633Z,65.80
2018-09-06T06:12:32.869Z,65.50
2018-09-06T06:15:01.208Z,65.50
2018-09-06T06:17:29.596Z,65.60
2018-09-06T06:19:57.904Z,65.40
2018-09-06T06:22:26.089Z,65.30
2018-09-06T06:24:54.316Z,65.30
2018-09-06T06:27:22.629Z,65.40
2018-09-06T06:29:50.896Z,65.40
2018-09-06T06:32:19.237Z,65.20
2018-09-06T06:34:47.437Z,65.00
2018-09-06T06:37:15.696Z,64.80
2018-09-06T06:39:43.967Z,64.60
2018-09-06T06:42:12.198Z,64.60
2018-09-06T06:44:40.428Z,64.60
2018-09-06T06:47:08.697Z,64.60
2018-09-06T06:49:36.981Z,64.50
2018-09-06T06:52:05.216Z,64.30
2018-09-06T06:54:34.136Z,64.10
2018-09-06T06:57:02.432Z,63.90
2018-09-06T06:59:30.680Z,63.70
2018-09-06T07:01:58.893Z,63.70
2018-09-06T07:04:27.291Z,63.60
2018-09-06T07:06:55.546Z,63.40
2018-09-06T07:09:25.691Z,63.10
2018-09-06T07:11:54.609Z,63.00
2018-09-06T07:14:23.267Z,62.90
2018-09-06T07:16:51.497Z,62.80
2018-09-06T07:19:19.750Z,62.70
2018-09-06T07:21:47.965Z,62.60
2018-09-06T07:24:16.333Z,62.60
2018-09-06T07:26:44.777Z,62.50
2018-09-06T07:29:13.005Z,62.40
2018-09-06T07:31:41.260Z,62.30
2018-09-06T07:34:09.507Z,62.20
2018-09-06T07:36:37.720Z,61.90
2018-09-06T07:39:08.022Z,62.00
2018-09-06T07:41:36.400Z,62.00
2018-09-06T07:44:04.729Z,62.30
2018-09-06T07:46:33.469Z,62.60
2018-09-06T07:49:01.802Z,62.80
2018-09-06T07:51:30.083Z,63.00
2018-09-06T07:53:58.669Z,63.00
2018-09-06T07:56:26.976Z,63.10
2018-09-06T07:58:55.351Z,63.10
2018-09-06T08:01:23.860Z,63.20
2018-09-06T08:03:52.061Z,63.10
2018-09-06T08:06:20.289Z,63.10
2018-09-06T08:08:48.520Z,63.10
2018-09-06T08:11:16.852Z,63.00
2018-09-06T08:13:45.109Z,62.90
2018-09-06T08:16:13.344Z,63.00
2018-09-06T08:18:41.579Z,62.80
2018-09-06T08:21:09.836Z,62.90
2018-09-06T08:23:38.065Z,62.90
2018-09-06T08:26:06.500Z,62.90
2018-09-06T08:28:34.709Z,63.60
2018-09-06T08:31:04.002Z,63.10
2018-09-06T08:33:32.188Z,63.20
2018-09-06T08:36:00.443Z,63.30
2018-09-06T08:38:28.740Z,63.70
2018-09-06T08:40:56.945Z,63.70
2018-09-06T08:43:25.182Z,63.80
2018-09-06T08:45:53.406Z,63.80
2018-09-06T08:48:21.686Z,63.70
2018-09-06T08:50:50.026Z,63.70
2018-09-06T08:53:18.281Z,63.70
2018-09-06T08:55:46.637Z,63.60
2018-09-06T08:58:14.856Z,63.60
2018-09-06T09:00:47.310Z,63.50
2018-09-06T09:03:15.773Z,63.50
2018-09-06T09:05:44.207Z,63.30
2018-09-06T09:08:12.535Z,63.20
2018-09-06T09:10:40.829Z,63.00
2018-09-06T09:13:09.360Z,62.90
2018-09-06T09:15:37.612Z,62.70
2018-09-06T09:18:05.961Z,62.60
2018-09-06T09:20:34.282Z,62.60
2018-09-06T09:23:02.608Z,62.60
2018-09-06T09:25:30.981Z,62.60
2018-09-06T09:27:59.142Z,62.50
2018-09-06T09:30:27.455Z,62.50
2018-09-06T09:32:55.662Z,62.30
2018-09-06T09:35:23.908Z,62.10
2018-09-06T09:37:52.331Z,61.90
2018-09-06T09:40:20.574Z,61.70
2018-09-06T09:42:48.795Z,61.60
2018-09-06T09:45:17.025Z,61.50
2018-09-06T09:47:45.244Z,61.40
2018-09-06T09:52:42.713Z,61.10
2018-09-06T09:55:10.952Z,61.00
2018-09-06T09:57:39.213Z,60.80
2018-09-06T10:00:12.465Z,60.60
2018-09-06T10:02:46.012Z,60.60
2018-09-06T10:18:10.356Z,59.40
2018-09-06T10:20:38.885Z,59.10
2018-09-06T10:23:07.141Z,58.30
2018-09-06T10:25:35.468Z,57.50
2018-09-06T10:28:03.796Z,57.50
2018-09-06T10:30:32.052Z,56.50
2018-09-06T10:33:00.291Z,56.00
2018-09-06T10:35:28.672Z,55.80
2018-09-06T10:37:58.092Z,55.30
2018-09-06T10:40:26.446Z,55.30
2018-09-06T10:42:54.636Z,55.80
2018-09-06T10:45:22.888Z,55.00
2018-09-06T10:47:51.153Z,54.50
2018-09-06T10:50:19.432Z,53.80
2018-09-06T10:52:47.702Z,53.60
2018-09-06T10:55:15.944Z,53.50
2018-09-06T10:57:44.180Z,53.40
2018-09-06T11:00:12.453Z,53.20
2018-09-06T11:02:40.689Z,52.80
2018-09-06T11:05:08.934Z,52.40
2018-09-06T11:07:37.184Z,52.00
2018-09-06T11:10:05.657Z,51.70
2018-09-06T11:12:33.865Z,51.60
2018-09-06T11:15:02.491Z,51.40
2018-09-06T11:17:30.676Z,51.00
2018-09-06T11:19:58.928Z,51.10
2018-09-06T11:22:27.718Z,51.10
2018-09-06T11:24:55.883Z,51.00
2018-09-06T11:27:24.133Z,50.70
2018-09-06T11:29:52.372Z,50.20
2018-09-06T11:32:21.640Z,49.90
2018-09-06T11:34:51.336Z,49.50
2018-09-06T11:37:19.617Z,49.10
2018-09-06T11:39:47.876Z,49.00
2018-09-06T11:42:16.128Z,48.90
2018-09-06T11:44:44.324Z,49.20
2018-09-06T11:47:12.600Z,48.50
2018-09-06T11:49:40.858Z,48.00
2018-09-06T11:52:10.217Z,47.60
2018-09-06T11:54:38.469Z,47.40
2018-09-06T11:57:06.732Z,47.30
2018-09-06T11:59:35.255Z,47.20
2018-09-06T12:02:04.270Z,47.30
2018-09-06T12:04:32.630Z,47.50
2018-09-06T12:07:01.058Z,47.50
2018-09-06T12:09:29.361Z,47.50
2018-09-06T12:11:57.716Z,47.70
2018-09-06T12:14:25.971Z,47.70
2018-09-06T12:16:54.181Z,47.90
2018-09-06T12:19:22.642Z,47.80
2018-09-06T12:21:50.948Z,47.60
2018-09-06T12:24:19.206Z,47.50
2018-09-06T12:26:47.428Z,47.60
2018-09-06T12:29:15.728Z,47.60
2018-09-06T12:31:43.967Z,47.60
2018-09-06T12:34:15.556Z,47.60
2018-09-06T12:36:43.801Z,47.60
2018-09-06T12:39:15.660Z,48.10
2018-09-06T12:41:43.945Z,50.40
2018-09-06T12:46:45.976Z,54.30
2018-09-06T12:49:14.221Z,55.80
2018-09-06T12:51:42.480Z,58.30
2018-09-06T12:54:10.688Z,60.80
2018-09-06T12:56:38.969Z,63.30
2018-09-06T12:59:07.164Z,65.20
2018-09-06T13:01:35.860Z,66.20
2018-09-06T13:04:04.152Z,66.80
2018-09-06T13:06:32.476Z,66.90
2018-09-06T13:09:00.689Z,66.80
2018-09-06T13:11:29.138Z,67.10
2018-09-06T13:13:57.373Z,67.90
2018-09-06T13:16:25.653Z,68.50
2018-09-06T13:18:53.947Z,69.10
2018-09-06T13:21:22.200Z,69.10
2018-09-06T13:23:50.453Z,68.90
2018-09-06T13:26:18.729Z,68.80
2018-09-06T13:28:46.935Z,68.80
2018-09-06T13:31:15.188Z,68.20
2018-09-06T13:33:43.484Z,67.60
2018-09-06T13:36:11.720Z,66.90
2018-09-06T13:38:40.066Z,66.50
2018-09-06T13:41:08.290Z,66.00
2018-09-06T13:43:36.576Z,65.50
2018-09-06T13:46:04.871Z,65.20
2018-09-06T13:48:33.101Z,64.70
2018-09-06T13:51:01.337Z,64.20
2018-09-06T13:53:29.600Z,63.80
2018-09-06T13:55:57.824Z,63.60
2018-09-06T13:58:26.201Z,63.20
2018-09-06T14:00:54.364Z,62.20
2018-09-06T14:03:22.560Z,61.10
2018-09-06T14:05:50.826Z,60.50
2018-09-06T14:08:19.032Z,59.80
2018-09-06T14:13:21.318Z,59.10
2018-09-06T14:15:49.572Z,58.80
2018-09-06T14:18:17.857Z,58.10
2018-09-06T14:20:46.119Z,57.70
2018-09-06T14:23:15.372Z,57.50
2018-09-06T14:25:43.612Z,57.40
2018-09-06T14:28:11.828Z,57.40
2018-09-06T14:30:40.080Z,57.20
2018-09-06T14:33:08.345Z,56.70
2018-09-06T14:35:36.584Z,56.40
2018-09-06T14:38:04.870Z,55.90
2018-09-06T14:40:33.236Z,55.80
2018-09-06T14:43:01.465Z,55.40
2018-09-06T14:45:29.796Z,55.00
2018-09-06T14:47:58.822Z,54.80
2018-09-06T14:50:27.087Z,54.90
2018-09-06T14:52:55.344Z,55.00
2018-09-06T14:55:23.748Z,55.20
2018-09-06T14:57:52.077Z,55.20
2018-09-06T15:00:20.413Z,55.30
2018-09-06T15:02:48.633Z,55.20
2018-09-06T15:05:16.857Z,55.70
2018-09-06T15:07:45.075Z,55.10
2018-09-06T15:10:13.286Z,55.30
2018-09-06T15:12:41.560Z,55.60
2018-09-06T15:15:10.446Z,55.80
2018-09-06T15:17:38.667Z,55.80
2018-09-06T15:20:06.953Z,56.70
2018-09-06T15:22:35.160Z,57.90
2018-09-06T15:25:03.424Z,58.60
2018-09-06T15:27:32.501Z,59.00
2018-09-06T15:30:00.729Z,59.00
2018-09-06T15:32:28.972Z,59.10
2018-09-06T15:34:57.185Z,59.20
2018-09-06T15:37:25.416Z,59.20
2018-09-06T15:39:53.651Z,59.30
2018-09-06T15:42:21.897Z,59.40
2018-09-06T15:44:50.119Z,59.60
2018-09-06T15:47:18.411Z,59.80
2018-09-06T15:49:46.650Z,60.30
2018-09-06T15:52:14.860Z,60.90
2018-09-06T15:54:43.232Z,61.60
2018-09-06T15:57:11.452Z,62.00
2018-09-06T15:59:39.763Z,62.50
2018-09-06T16:02:07.998Z,63.00
2018-09-06T16:04:36.241Z,63.50
2018-09-06T16:07:04.438Z,64.10
2018-09-06T16:12:06.544Z,65.30
2018-09-06T16:14:35.952Z,65.80
2018-09-06T16:17:04.239Z,66.50
2018-09-06T16:19:32.476Z,67.10
2018-09-06T16:22:00.689Z,67.70
2018-09-06T16:24:29.000Z,68.10
2018-09-06T16:26:57.168Z,68.10
2018-09-06T16:29:25.435Z,68.20
2018-09-06T16:31:53.653Z,68.10
2018-09-06T16:34:21.968Z,68.20
2018-09-06T16:36:50.177Z,68.20
2018-09-06T16:41:52.841Z,67.90
2018-09-06T16:44:21.076Z,67.40
2018-09-06T16:46:49.316Z,67.10
2018-09-06T16:49:17.538Z,66.60
2018-09-06T16:51:45.826Z,66.40
2018-09-06T16:54:14.041Z,66.40
2018-09-06T16:56:42.313Z,66.80
2018-09-06T16:59:10.520Z,67.10
2018-09-06T17:04:12.364Z,67.30
2018-09-06T17:06:40.708Z,67.70
2018-09-06T17:09:09.424Z,68.10
2018-09-06T17:14:11.728Z,68.60
2018-09-06T17:16:39.942Z,68.80
2018-09-06T17:19:08.174Z,69.10
2018-09-06T17:21:36.391Z,69.10
2018-09-06T17:24:04.623Z,69.70
2018-09-06T17:26:32.844Z,69.40
2018-09-06T17:29:01.074Z,70.20
2018-09-06T17:31:29.272Z,70.80
2018-09-06T17:33:58.195Z,71.10
2018-09-06T17:36:26.367Z,71.20
2018-09-06T17:38:54.702Z,71.10
2018-09-06T17:41:22.887Z,71.20
2018-09-06T17:43:51.080Z,71.40
2018-09-06T17:46:20.048Z,72.40
2018-09-06T17:48:48.257Z,72.40
2018-09-06T17:51:16.512Z,72.30
2018-09-06T17:53:44.732Z,72.60
2018-09-06T17:56:12.956Z,72.70
2018-09-06T17:58:41.160Z,73.10
2018-09-06T18:03:53.174Z,73.10
2018-09-06T18:06:21.417Z,73.50
2018-09-06T18:08:49.637Z,73.80
2018-09-06T18:11:17.901Z,74.20
2018-09-06T18:13:46.112Z,74.40
2018-09-06T18:16:14.331Z,74.60
2018-09-06T18:18:42.592Z,74.60
2018-09-06T18:21:10.808Z,74.70
2018-09-06T18:23:39.185Z,75.10
2018-09-06T18:26:07.324Z,75.40
2018-09-06T18:28:35.552Z,75.50
2018-09-06T18:31:04.056Z,75.80
2018-09-06T18:33:34.892Z,76.10
2018-09-06T18:36:03.113Z,76.30
2018-09-06T18:38:31.344Z,76.20
2018-09-06T18:43:33.659Z,76.20
2018-09-06T18:46:01.909Z,76.00
2018-09-06T18:48:30.120Z,75.70
2018-09-06T18:50:58.388Z,75.30
2018-09-06T18:53:26.692Z,74.90
2018-09-06T18:55:54.940Z,74.20
2018-09-06T18:58:23.207Z,73.80
2018-09-06T19:00:51.439Z,73.30
2018-09-06T19:03:19.648Z,73.00
2018-09-06T19:05:48.119Z,72.70
2018-09-06T19:08:16.347Z,72.20
2018-09-06T19:15:51.976Z,71.60
2018-09-06T19:18:20.253Z,71.40
2018-09-06T19:20:48.476Z,71.30
2018-09-06T19:23:16.704Z,71.20
2018-09-06T19:25:44.948Z,71.10
2018-09-06T19:28:13.896Z,71.10
2018-09-06T19:33:16.317Z,71.10
2018-09-06T19:35:44.896Z,71.10
2018-09-06T19:38:13.545Z,71.10
2018-09-06T19:40:41.921Z,71.10
2018-09-06T19:43:10.244Z,71.10
2018-09-06T19:45:38.537Z,71.10
2018-09-06T19:48:06.999Z,71.20
2018-09-06T19:50:35.440Z,71.30
2018-09-06T19:53:03.696Z,71.40
2018-09-06T19:55:32.199Z,71.40
2018-09-06T19:58:00.516Z,71.60
2018-09-06T20:00:28.777Z,71.80
2018-09-06T20:02:57.004Z,72.00
2018-09-06T20:05:25.764Z,72.00
2018-09-06T20:07:54.050Z,72.00
2018-09-06T20:10:22.244Z,72.00
2018-09-06T20:12:51.316Z,72.20
2018-09-06T20:15:20.089Z,72.20
2018-09-06T20:17:48.552Z,72.30
2018-09-06T20:20:21.293Z,72.40
2018-09-06T20:22:49.524Z,72.50
2018-09-06T20:25:17.768Z,72.60
2018-09-06T20:27:46.016Z,72.90
2018-09-06T20:30:14.305Z,73.00
2018-09-06T20:32:42.526Z,73.20
2018-09-06T20:35:11.013Z,73.40
2018-09-06T20:37:39.232Z,73.60
2018-09-06T20:40:07.440Z,73.80
2018-09-06T20:42:35.678Z,73.80
2018-09-06T20:45:03.884Z,73.40
2018-09-06T20:47:32.104Z,73.20
2018-09-06T20:50:00.325Z,73.00
2018-09-06T20:52:28.748Z,72.60
2018-09-06T20:54:56.968Z,72.40
2018-09-06T20:57:25.300Z,72.20
2018-09-06T20:59:53.590Z,71.90
2018-09-06T21:02:22.880Z,71.70
2018-09-06T21:04:51.536Z,71.60
2018-09-06T21:07:19.737Z,71.50
2018-09-06T21:09:48.021Z,71.10
2018-09-06T21:12:16.248Z,71.30
2018-09-06T21:14:44.547Z,71.40
2018-09-06T21:17:12.751Z,71.70
2018-09-06T21:19:41.057Z,71.90
2018-09-06T21:22:09.273Z,72.20
2018-09-06T21:24:37.553Z,72.30
2018-09-06T21:27:06.018Z,72.20
2018-09-06T21:29:34.296Z,72.20
2018-09-06T21:32:03.212Z,72.10
2018-09-06T21:34:31.437Z,71.70
2018-09-06T21:36:59.656Z,71.40
2018-09-06T21:39:27.880Z,71.10
2018-09-06T21:41:56.091Z,71.00
2018-09-06T21:44:24.297Z,70.90
2018-09-06T21:46:52.578Z,70.80
2018-09-06T21:49:20.815Z,70.80
2018-09-06T21:57:21.052Z,71.00
2018-09-06T21:59:49.295Z,71.20
2018-09-06T22:02:23.064Z,71.60
2018-09-06T22:04:51.274Z,72.10
2018-09-06T22:07:19.493Z,72.50
2018-09-06T22:09:47.824Z,73.00
2018-09-06T22:12:17.503Z,73.50
2018-09-06T22:14:46.956Z,74.00
2018-09-06T22:17:15.587Z,74.30
2018-09-06T22:19:44.140Z,74.50
2018-09-06T22:22:12.388Z,74.80
2018-09-06T22:24:41.036Z,75.10
2018-09-06T22:27:09.297Z,75.30
2018-09-06T22:29:37.688Z,75.60
2018-09-06T22:32:06.412Z,75.90
2018-09-06T22:34:34.664Z,76.10
2018-09-06T22:37:02.912Z,76.30
2018-09-06T22:39:31.152Z,76.40
2018-09-06T22:41:59.888Z,76.30
2018-09-06T22:44:28.129Z,76.40
2018-09-06T22:46:56.385Z,76.50
2018-09-06T22:49:24.748Z,76.40
2018-09-06T22:51:53.012Z,76.30
2018-09-06T22:54:21.419Z,76.30
2018-09-06T22:56:49.825Z,76.20
2018-09-06T22:59:18.100Z,76.10
2018-09-06T23:01:46.345Z,76.10
2018-09-06T23:04:14.597Z,76.00
2018-09-06T23:06:42.877Z,76.10
2018-09-06T23:09:11.136Z,76.20
2018-09-06T23:11:39.558Z,76.40
2018-09-06T23:14:07.813Z,76.80
2018-09-06T23:16:36.074Z,76.90
2018-09-06T23:19:04.486Z,76.90
2018-09-06T23:21:32.724Z,77.00
2018-09-06T23:24:00.944Z,77.00
2018-09-06T23:26:29.208Z,77.10
2018-09-06T23:28:57.465Z,77.20
2018-09-06T23:31:25.673Z,77.30
2018-09-06T23:33:53.924Z,77.40
2018-09-06T23:36:22.163Z,77.40
2018-09-06T23:38:50.424Z,77.60
2018-09-06T23:41:18.639Z,77.50
2018-09-06T23:43:46.896Z,77.60
2018-09-06T23:46:15.136Z,77.70
2018-09-06T23:48:43.387Z,77.80
2018-09-06T23:51:11.601Z,77.90
2018-09-06T23:53:39.852Z,78.10
2018-09-06T23:56:08.084Z,78.30
2018-09-06T23:58:36.349Z,78.40
